sensor_id;sensor_type;location;lat;lon;timestamp;temperature;humidity
62154;DHT22;48140;45.486;9.226;2023-03-24T00:01:12;13.70;95.50
62154;DHT22;48140;45.486;9.226;2023-03-24T00:03:38;13.80;95.60
62154;DHT22;48140;45.486;9.226;2023-03-24T00:06:05;13.80;95.50
62154;DHT22;48140;45.486;9.226;2023-03-24T00:08:34;13.80;95.60
62154;DHT22;48140;45.486;9.226;2023-03-24T00:11:02;13.80;95.60
62154;DHT22;48140;45.486;9.226;2023-03-24T00:13:29;13.80;95.70
62154;DHT22;48140;45.486;9.226;2023-03-24T00:15:57;13.80;95.60
62154;DHT22;48140;45.486;9.226;2023-03-24T00:18:22;13.70;95.70
62154;DHT22;48140;45.486;9.226;2023-03-24T00:20:52;13.70;96.00
62154;DHT22;48140;45.486;9.226;2023-03-24T00:23:29;13.70;96.00
62154;DHT22;48140;45.486;9.226;2023-03-24T00:26:11;13.60;96.20
62154;DHT22;48140;45.486;9.226;2023-03-24T00:28:41;13.60;96.20
62154;DHT22;48140;45.486;9.226;2023-03-24T00:31:07;13.70;96.20
62154;DHT22;48140;45.486;9.226;2023-03-24T00:33:34;13.70;96.10
62154;DHT22;48140;45.486;9.226;2023-03-24T00:36:05;13.70;96.30
62154;DHT22;48140;45.486;9.226;2023-03-24T00:38:32;13.70;96.20
62154;DHT22;48140;45.486;9.226;2023-03-24T00:40:59;13.70;96.20
62154;DHT22;48140;45.486;9.226;2023-03-24T00:43:27;13.70;96.40
62154;DHT22;48140;45.486;9.226;2023-03-24T00:46:06;13.80;96.20
62154;DHT22;48140;45.486;9.226;2023-03-24T00:48:32;13.80;96.10
62154;DHT22;48140;45.486;9.226;2023-03-24T00:51:01;13.70;96.30
62154;DHT22;48140;45.486;9.226;2023-03-24T00:53:29;13.60;96.40
62154;DHT22;48140;45.486;9.226;2023-03-24T00:55:56;13.80;96.20
62154;DHT22;48140;45.486;9.226;2023-03-24T00:58:23;13.80;96.30
62154;DHT22;48140;45.486;9.226;2023-03-24T01:00:54;13.80;96.40
62154;DHT22;48140;45.486;9.226;2023-03-24T01:03:21;13.80;96.30
62154;DHT22;48140;45.486;9.226;2023-03-24T01:05:52;13.80;96.30
62154;DHT22;48140;45.486;9.226;2023-03-24T01:08:19;13.70;96.50
62154;DHT22;48140;45.486;9.226;2023-03-24T01:10:47;13.70;96.30
62154;DHT22;48140;45.486;9.226;2023-03-24T01:13:25;13.80;96.30
62154;DHT22;48140;45.486;9.226;2023-03-24T01:15:52;13.80;96.30
62154;DHT22;48140;45.486;9.226;2023-03-24T01:18:18;13.80;96.40
62154;DHT22;48140;45.486;9.226;2023-03-24T01:20:45;13.80;96.50
62154;DHT22;48140;45.486;9.226;2023-03-24T01:23:13;13.80;96.50
62154;DHT22;48140;45.486;9.226;2023-03-24T01:25:40;13.80;96.30
62154;DHT22;48140;45.486;9.226;2023-03-24T01:28:10;13.90;96.40
62154;DHT22;48140;45.486;9.226;2023-03-24T01:30:37;13.90;96.30
62154;DHT22;48140;45.486;9.226;2023-03-24T01:33:03;13.90;96.30
62154;DHT22;48140;45.486;9.226;2023-03-24T01:35:29;13.90;96.20
62154;DHT22;48140;45.486;9.226;2023-03-24T01:37:54;13.90;96.20
62154;DHT22;48140;45.486;9.226;2023-03-24T01:40:27;13.90;96.30
62154;DHT22;48140;45.486;9.226;2023-03-24T01:42:53;13.90;96.40
62154;DHT22;48140;45.486;9.226;2023-03-24T01:48:04;13.90;96.40
62154;DHT22;48140;45.486;9.226;2023-03-24T01:50:31;13.90;96.30
62154;DHT22;48140;45.486;9.226;2023-03-24T01:52:58;13.80;96.70
62154;DHT22;48140;45.486;9.226;2023-03-24T01:55:24;13.80;96.60
62154;DHT22;48140;45.486;9.226;2023-03-24T01:57:54;13.90;96.60
62154;DHT22;48140;45.486;9.226;2023-03-24T02:00:21;13.90;96.60
62154;DHT22;48140;45.486;9.226;2023-03-24T02:02:53;13.90;96.60
62154;DHT22;48140;45.486;9.226;2023-03-24T02:05:22;14.00;96.50
62154;DHT22;48140;45.486;9.226;2023-03-24T02:08:00;14.00;96.30
62154;DHT22;48140;45.486;9.226;2023-03-24T02:10:30;14.00;96.40
62154;DHT22;48140;45.486;9.226;2023-03-24T02:12:57;14.00;96.40
62154;DHT22;48140;45.486;9.226;2023-03-24T02:15:25;14.00;96.40
62154;DHT22;48140;45.486;9.226;2023-03-24T02:48:50;14.00;97.00
62154;DHT22;48140;45.486;9.226;2023-03-24T02:51:39;14.00;96.60
62154;DHT22;48140;45.486;9.226;2023-03-24T02:54:18;14.00;96.60
62154;DHT22;48140;45.486;9.226;2023-03-24T03:02:19;14.00;96.50
62154;DHT22;48140;45.486;9.226;2023-03-24T03:04:54;14.00;96.40
62154;DHT22;48140;45.486;9.226;2023-03-24T03:07:24;14.00;96.70
62154;DHT22;48140;45.486;9.226;2023-03-24T03:09:59;14.00;96.60
62154;DHT22;48140;45.486;9.226;2023-03-24T03:12:29;14.00;96.60
62154;DHT22;48140;45.486;9.226;2023-03-24T03:15:09;13.90;96.80
62154;DHT22;48140;45.486;9.226;2023-03-24T03:17:51;13.90;96.90
62154;DHT22;48140;45.486;9.226;2023-03-24T03:20:21;13.90;96.90
62154;DHT22;48140;45.486;9.226;2023-03-24T03:23:00;13.90;96.90
62154;DHT22;48140;45.486;9.226;2023-03-24T03:25:33;13.90;96.90
62154;DHT22;48140;45.486;9.226;2023-03-24T03:28:02;13.90;97.00
62154;DHT22;48140;45.486;9.226;2023-03-24T03:30:45;14.00;96.90
62154;DHT22;48140;45.486;9.226;2023-03-24T03:33:15;13.90;96.90
62154;DHT22;48140;45.486;9.226;2023-03-24T03:36:03;13.90;97.00
62154;DHT22;48140;45.486;9.226;2023-03-24T03:41:04;13.90;96.80
62154;DHT22;48140;45.486;9.226;2023-03-24T03:43:31;13.90;96.90
62154;DHT22;48140;45.486;9.226;2023-03-24T03:45:58;13.80;97.30
62154;DHT22;48140;45.486;9.226;2023-03-24T03:48:25;13.80;97.30
62154;DHT22;48140;45.486;9.226;2023-03-24T03:50:52;13.80;97.30
62154;DHT22;48140;45.486;9.226;2023-03-24T03:53:20;13.80;97.40
62154;DHT22;48140;45.486;9.226;2023-03-24T03:55:47;13.90;97.50
62154;DHT22;48140;45.486;9.226;2023-03-24T03:58:13;13.80;97.50
62154;DHT22;48140;45.486;9.226;2023-03-24T04:00:39;13.70;97.60
62154;DHT22;48140;45.486;9.226;2023-03-24T04:03:31;13.70;97.70
62154;DHT22;48140;45.486;9.226;2023-03-24T04:09:01;13.70;97.70
62154;DHT22;48140;45.486;9.226;2023-03-24T04:11:41;13.70;97.90
62154;DHT22;48140;45.486;9.226;2023-03-24T04:14:27;13.70;97.80
62154;DHT22;48140;45.486;9.226;2023-03-24T04:17:22;13.60;98.10
62154;DHT22;48140;45.486;9.226;2023-03-24T04:20:07;13.70;97.90
62154;DHT22;48140;45.486;9.226;2023-03-24T04:25:42;13.70;98.00
62154;DHT22;48140;45.486;9.226;2023-03-24T04:30:57;13.70;98.10
62154;DHT22;48140;45.486;9.226;2023-03-24T04:33:49;13.70;98.20
62154;DHT22;48140;45.486;9.226;2023-03-24T04:36:26;13.70;98.10
62154;DHT22;48140;45.486;9.226;2023-03-24T04:38:58;13.70;98.20
62154;DHT22;48140;45.486;9.226;2023-03-24T04:41:28;13.60;98.50
62154;DHT22;48140;45.486;9.226;2023-03-24T04:43:55;13.70;98.40
62154;DHT22;48140;45.486;9.226;2023-03-24T04:46:22;13.70;98.40
62154;DHT22;48140;45.486;9.226;2023-03-24T04:48:48;13.70;99.00
62154;DHT22;48140;45.486;9.226;2023-03-24T04:51:16;13.70;98.60
62154;DHT22;48140;45.486;9.226;2023-03-24T04:53:42;13.80;98.50
62154;DHT22;48140;45.486;9.226;2023-03-24T04:58:39;13.80;98.50
62154;DHT22;48140;45.486;9.226;2023-03-24T05:01:04;13.80;98.60
62154;DHT22;48140;45.486;9.226;2023-03-24T05:03:30;13.70;98.50
62154;DHT22;48140;45.486;9.226;2023-03-24T05:05:56;13.70;98.30
62154;DHT22;48140;45.486;9.226;2023-03-24T05:08:23;13.80;98.30
62154;DHT22;48140;45.486;9.226;2023-03-24T05:10:49;13.70;98.40
62154;DHT22;48140;45.486;9.226;2023-03-24T05:13:15;13.70;98.50
62154;DHT22;48140;45.486;9.226;2023-03-24T05:15:41;13.70;98.50
62154;DHT22;48140;45.486;9.226;2023-03-24T05:18:07;13.70;98.30
62154;DHT22;48140;45.486;9.226;2023-03-24T05:20:33;13.70;98.20
62154;DHT22;48140;45.486;9.226;2023-03-24T05:22:58;13.70;98.20
62154;DHT22;48140;45.486;9.226;2023-03-24T05:25:25;13.70;98.40
62154;DHT22;48140;45.486;9.226;2023-03-24T05:27:51;13.80;98.30
62154;DHT22;48140;45.486;9.226;2023-03-24T05:30:17;13.70;98.20
62154;DHT22;48140;45.486;9.226;2023-03-24T05:32:44;13.70;98.10
62154;DHT22;48140;45.486;9.226;2023-03-24T05:35:10;13.60;98.20
62154;DHT22;48140;45.486;9.226;2023-03-24T05:37:36;13.70;98.40
62154;DHT22;48140;45.486;9.226;2023-03-24T05:40:01;13.70;98.40
62154;DHT22;48140;45.486;9.226;2023-03-24T05:42:27;13.70;98.20
62154;DHT22;48140;45.486;9.226;2023-03-24T05:44:53;13.70;98.30
62154;DHT22;48140;45.486;9.226;2023-03-24T05:47:18;13.80;98.20
62154;DHT22;48140;45.486;9.226;2023-03-24T05:49:47;13.80;98.00
62154;DHT22;48140;45.486;9.226;2023-03-24T05:52:14;13.80;98.00
62154;DHT22;48140;45.486;9.226;2023-03-24T05:54:45;13.80;97.60
62154;DHT22;48140;45.486;9.226;2023-03-24T05:57:13;13.70;97.80
62154;DHT22;48140;45.486;9.226;2023-03-24T05:59:39;13.70;98.10
62154;DHT22;48140;45.486;9.226;2023-03-24T06:02:05;13.70;98.00
62154;DHT22;48140;45.486;9.226;2023-03-24T06:04:31;13.70;97.90
62154;DHT22;48140;45.486;9.226;2023-03-24T06:06:59;13.80;97.90
62154;DHT22;48140;45.486;9.226;2023-03-24T06:09:25;13.80;97.70
62154;DHT22;48140;45.486;9.226;2023-03-24T06:11:53;13.80;97.40
62154;DHT22;48140;45.486;9.226;2023-03-24T06:14:19;13.80;97.40
62154;DHT22;48140;45.486;9.226;2023-03-24T06:16:48;13.80;97.60
62154;DHT22;48140;45.486;9.226;2023-03-24T06:19:15;13.90;97.20
62154;DHT22;48140;45.486;9.226;2023-03-24T06:21:41;13.90;97.30
62154;DHT22;48140;45.486;9.226;2023-03-24T06:24:10;13.90;97.10
62154;DHT22;48140;45.486;9.226;2023-03-24T06:26:39;13.90;96.90
62154;DHT22;48140;45.486;9.226;2023-03-24T06:29:06;13.90;97.10
62154;DHT22;48140;45.486;9.226;2023-03-24T06:31:32;13.90;97.00
62154;DHT22;48140;45.486;9.226;2023-03-24T06:33:58;13.90;96.80
62154;DHT22;48140;45.486;9.226;2023-03-24T06:36:24;14.00;96.70
62154;DHT22;48140;45.486;9.226;2023-03-24T06:38:50;14.00;96.30
62154;DHT22;48140;45.486;9.226;2023-03-24T06:41:15;14.00;96.40
62154;DHT22;48140;45.486;9.226;2023-03-24T06:43:41;14.00;96.30
62154;DHT22;48140;45.486;9.226;2023-03-24T06:46:07;14.00;96.20
62154;DHT22;48140;45.486;9.226;2023-03-24T06:48:34;14.10;96.30
62154;DHT22;48140;45.486;9.226;2023-03-24T06:51:00;14.10;95.80
62154;DHT22;48140;45.486;9.226;2023-03-24T06:53:25;14.10;96.00
62154;DHT22;48140;45.486;9.226;2023-03-24T06:55:51;14.10;95.90
62154;DHT22;48140;45.486;9.226;2023-03-24T06:58:17;14.20;96.00
62154;DHT22;48140;45.486;9.226;2023-03-24T07:00:44;14.20;95.40
62154;DHT22;48140;45.486;9.226;2023-03-24T07:03:11;14.20;95.20
62154;DHT22;48140;45.486;9.226;2023-03-24T07:05:43;14.20;95.30
62154;DHT22;48140;45.486;9.226;2023-03-24T07:08:09;14.30;95.20
62154;DHT22;48140;45.486;9.226;2023-03-24T07:10:37;14.30;95.30
62154;DHT22;48140;45.486;9.226;2023-03-24T07:13:04;14.40;94.90
62154;DHT22;48140;45.486;9.226;2023-03-24T07:15:31;14.40;94.80
62154;DHT22;48140;45.486;9.226;2023-03-24T07:17:56;14.40;94.70
62154;DHT22;48140;45.486;9.226;2023-03-24T07:20:22;14.40;94.60
62154;DHT22;48140;45.486;9.226;2023-03-24T07:22:48;14.50;94.50
62154;DHT22;48140;45.486;9.226;2023-03-24T07:25:14;14.40;94.10
62154;DHT22;48140;45.486;9.226;2023-03-24T07:27:45;14.50;94.00
62154;DHT22;48140;45.486;9.226;2023-03-24T07:30:11;14.50;93.80
62154;DHT22;48140;45.486;9.226;2023-03-24T07:32:38;14.50;93.70
62154;DHT22;48140;45.486;9.226;2023-03-24T07:35:13;14.60;93.40
62154;DHT22;48140;45.486;9.226;2023-03-24T07:37:39;14.60;93.20
62154;DHT22;48140;45.486;9.226;2023-03-24T07:40:05;14.60;93.20
62154;DHT22;48140;45.486;9.226;2023-03-24T07:42:33;14.60;93.10
62154;DHT22;48140;45.486;9.226;2023-03-24T07:44:59;14.60;93.20
62154;DHT22;48140;45.486;9.226;2023-03-24T07:47:25;14.50;93.00
62154;DHT22;48140;45.486;9.226;2023-03-24T07:49:51;14.50;93.10
62154;DHT22;48140;45.486;9.226;2023-03-24T07:52:16;14.60;93.10
62154;DHT22;48140;45.486;9.226;2023-03-24T07:54:42;14.60;92.70
62154;DHT22;48140;45.486;9.226;2023-03-24T07:57:07;14.80;92.50
62154;DHT22;48140;45.486;9.226;2023-03-24T07:59:33;14.60;92.60
62154;DHT22;48140;45.486;9.226;2023-03-24T08:01:59;14.70;92.20
62154;DHT22;48140;45.486;9.226;2023-03-24T08:04:25;14.70;92.00
62154;DHT22;48140;45.486;9.226;2023-03-24T08:06:52;14.70;92.10
62154;DHT22;48140;45.486;9.226;2023-03-24T08:09:18;14.70;92.10
62154;DHT22;48140;45.486;9.226;2023-03-24T08:11:44;14.70;92.20
62154;DHT22;48140;45.486;9.226;2023-03-24T08:14:10;14.80;92.10
62154;DHT22;48140;45.486;9.226;2023-03-24T08:16:35;14.80;91.70
62154;DHT22;48140;45.486;9.226;2023-03-24T08:19:03;14.80;91.70
62154;DHT22;48140;45.486;9.226;2023-03-24T08:21:29;14.80;91.50
62154;DHT22;48140;45.486;9.226;2023-03-24T08:23:55;14.80;91.90
62154;DHT22;48140;45.486;9.226;2023-03-24T08:26:20;14.90;91.20
62154;DHT22;48140;45.486;9.226;2023-03-24T08:28:47;14.70;91.30
62154;DHT22;48140;45.486;9.226;2023-03-24T08:31:14;14.70;91.50
62154;DHT22;48140;45.486;9.226;2023-03-24T08:33:40;14.80;91.50
62154;DHT22;48140;45.486;9.226;2023-03-24T08:36:06;14.80;91.30
62154;DHT22;48140;45.486;9.226;2023-03-24T08:38:32;14.80;91.40
62154;DHT22;48140;45.486;9.226;2023-03-24T08:41:00;14.80;91.70
62154;DHT22;48140;45.486;9.226;2023-03-24T08:43:28;14.80;91.70
62154;DHT22;48140;45.486;9.226;2023-03-24T08:45:56;14.90;91.30
62154;DHT22;48140;45.486;9.226;2023-03-24T08:48:22;14.90;91.10
62154;DHT22;48140;45.486;9.226;2023-03-24T08:50:48;15.00;91.00
62154;DHT22;48140;45.486;9.226;2023-03-24T08:53:13;14.90;91.30
62154;DHT22;48140;45.486;9.226;2023-03-24T08:55:40;14.90;91.60
62154;DHT22;48140;45.486;9.226;2023-03-24T08:58:14;15.00;90.90
62154;DHT22;48140;45.486;9.226;2023-03-24T09:00:40;15.10;91.00
62154;DHT22;48140;45.486;9.226;2023-03-24T09:03:06;15.10;90.90
62154;DHT22;48140;45.486;9.226;2023-03-24T09:05:32;15.20;90.60
62154;DHT22;48140;45.486;9.226;2023-03-24T09:07:57;15.20;90.60
62154;DHT22;48140;45.486;9.226;2023-03-24T09:10:25;15.20;90.50
62154;DHT22;48140;45.486;9.226;2023-03-24T09:12:51;15.20;90.30
62154;DHT22;48140;45.486;9.226;2023-03-24T09:15:17;15.20;90.60
62154;DHT22;48140;45.486;9.226;2023-03-24T09:17:43;15.20;90.70
62154;DHT22;48140;45.486;9.226;2023-03-24T09:20:11;15.20;90.60
62154;DHT22;48140;45.486;9.226;2023-03-24T09:22:42;15.20;90.70
62154;DHT22;48140;45.486;9.226;2023-03-24T09:25:16;15.10;90.70
62154;DHT22;48140;45.486;9.226;2023-03-24T09:27:42;15.20;90.70
62154;DHT22;48140;45.486;9.226;2023-03-24T09:30:09;15.20;90.60
62154;DHT22;48140;45.486;9.226;2023-03-24T09:32:35;15.20;90.60
62154;DHT22;48140;45.486;9.226;2023-03-24T09:35:01;15.10;90.70
62154;DHT22;48140;45.486;9.226;2023-03-24T09:37:31;15.10;90.80
62154;DHT22;48140;45.486;9.226;2023-03-24T09:39:57;15.00;91.10
62154;DHT22;48140;45.486;9.226;2023-03-24T09:42:34;15.00;91.10
62154;DHT22;48140;45.486;9.226;2023-03-24T09:45:06;15.00;91.10
62154;DHT22;48140;45.486;9.226;2023-03-24T09:47:41;15.10;91.00
62154;DHT22;48140;45.486;9.226;2023-03-24T09:50:19;15.10;91.10
62154;DHT22;48140;45.486;9.226;2023-03-24T09:52:47;15.10;90.90
62154;DHT22;48140;45.486;9.226;2023-03-24T09:55:23;15.20;91.00
62154;DHT22;48140;45.486;9.226;2023-03-24T09:57:50;15.40;90.70
62154;DHT22;48140;45.486;9.226;2023-03-24T10:00:18;15.40;90.60
62154;DHT22;48140;45.486;9.226;2023-03-24T10:02:45;15.40;90.60
62154;DHT22;48140;45.486;9.226;2023-03-24T10:05:36;15.30;90.80
62154;DHT22;48140;45.486;9.226;2023-03-24T10:08:17;15.20;90.90
62154;DHT22;48140;45.486;9.226;2023-03-24T10:16:17;15.40;90.70
62154;DHT22;48140;45.486;9.226;2023-03-24T10:18:56;15.50;90.50
62154;DHT22;48140;45.486;9.226;2023-03-24T10:21:26;15.60;90.30
62154;DHT22;48140;45.486;9.226;2023-03-24T10:27:01;16.00;89.30
62154;DHT22;48140;45.486;9.226;2023-03-24T10:29:33;15.90;89.10
62154;DHT22;48140;45.486;9.226;2023-03-24T10:32:12;16.10;88.60
62154;DHT22;48140;45.486;9.226;2023-03-24T10:34:40;16.20;87.90
62154;DHT22;48140;45.486;9.226;2023-03-24T10:37:11;16.30;87.90
62154;DHT22;48140;45.486;9.226;2023-03-24T10:39:38;16.50;87.10
62154;DHT22;48140;45.486;9.226;2023-03-24T10:42:05;16.70;86.30
62154;DHT22;48140;45.486;9.226;2023-03-24T10:44:30;16.70;86.40
62154;DHT22;48140;45.486;9.226;2023-03-24T10:46:58;16.80;86.00
62154;DHT22;48140;45.486;9.226;2023-03-24T10:49:27;16.90;85.30
62154;DHT22;48140;45.486;9.226;2023-03-24T10:51:54;17.00;84.90
62154;DHT22;48140;45.486;9.226;2023-03-24T10:54:26;17.30;84.30
62154;DHT22;48140;45.486;9.226;2023-03-24T10:59:34;17.50;82.90
62154;DHT22;48140;45.486;9.226;2023-03-24T11:04:59;17.50;82.50
62154;DHT22;48140;45.486;9.226;2023-03-24T11:07:46;17.50;82.60
62154;DHT22;48140;45.486;9.226;2023-03-24T11:13:01;17.30;83.20
62154;DHT22;48140;45.486;9.226;2023-03-24T11:15:30;17.30;83.40
62154;DHT22;48140;45.486;9.226;2023-03-24T11:17:59;17.20;84.10
62154;DHT22;48140;45.486;9.226;2023-03-24T11:20:37;17.30;83.80
62154;DHT22;48140;45.486;9.226;2023-03-24T11:23:19;17.30;83.70
62154;DHT22;48140;45.486;9.226;2023-03-24T11:26:14;17.30;83.80
62154;DHT22;48140;45.486;9.226;2023-03-24T11:29:05;17.30;83.70
62154;DHT22;48140;45.486;9.226;2023-03-24T11:31:36;17.30;83.80
62154;DHT22;48140;45.486;9.226;2023-03-24T11:34:33;17.40;83.60
62154;DHT22;48140;45.486;9.226;2023-03-24T11:37:26;17.40;83.40
62154;DHT22;48140;45.486;9.226;2023-03-24T11:42:47;17.90;82.10
62154;DHT22;48140;45.486;9.226;2023-03-24T11:48:09;18.30;79.90
62154;DHT22;48140;45.486;9.226;2023-03-24T11:50:37;18.70;78.70
62154;DHT22;48140;45.486;9.226;2023-03-24T11:53:10;18.90;77.40
62154;DHT22;48140;45.486;9.226;2023-03-24T11:55:46;19.00;77.10
62154;DHT22;48140;45.486;9.226;2023-03-24T11:58:43;19.00;77.80
62154;DHT22;48140;45.486;9.226;2023-03-24T12:01:37;18.70;77.80
62154;DHT22;48140;45.486;9.226;2023-03-24T12:09:45;18.60;78.40
62154;DHT22;48140;45.486;9.226;2023-03-24T12:17:41;19.20;75.50
62154;DHT22;48140;45.486;9.226;2023-03-24T12:23:31;19.10;76.10
62154;DHT22;48140;45.486;9.226;2023-03-24T12:45:57;19.10;75.50
62154;DHT22;48140;45.486;9.226;2023-03-24T12:53:59;19.10;75.40
62154;DHT22;48140;45.486;9.226;2023-03-24T12:56:40;19.20;75.50
62154;DHT22;48140;45.486;9.226;2023-03-24T12:59:15;19.40;73.90
62154;DHT22;48140;45.486;9.226;2023-03-24T13:01:45;19.40;74.30
62154;DHT22;48140;45.486;9.226;2023-03-24T13:04:28;20.20;71.40
62154;DHT22;48140;45.486;9.226;2023-03-24T13:06:59;20.70;68.90
62154;DHT22;48140;45.486;9.226;2023-03-24T13:09:42;20.90;66.60
62154;DHT22;48140;45.486;9.226;2023-03-24T13:12:29;20.90;67.00
62154;DHT22;48140;45.486;9.226;2023-03-24T13:17:47;21.20;65.30
62154;DHT22;48140;45.486;9.226;2023-03-24T13:20:32;21.80;61.70
62154;DHT22;48140;45.486;9.226;2023-03-24T13:23:40;21.80;60.40
62154;DHT22;48140;45.486;9.226;2023-03-24T13:28:47;22.70;55.40
62154;DHT22;48140;45.486;9.226;2023-03-24T13:31:16;23.30;52.70
62154;DHT22;48140;45.486;9.226;2023-03-24T13:33:44;23.50;52.10
62154;DHT22;48140;45.486;9.226;2023-03-24T13:39:24;23.30;51.90
62154;DHT22;48140;45.486;9.226;2023-03-24T13:41:52;22.80;53.30
62154;DHT22;48140;45.486;9.226;2023-03-24T13:47:11;23.40;51.20
62154;DHT22;48140;45.486;9.226;2023-03-24T13:49:38;23.70;49.40
62154;DHT22;48140;45.486;9.226;2023-03-24T13:52:19;23.90;49.80
62154;DHT22;48140;45.486;9.226;2023-03-24T13:54:46;24.00;47.70
62154;DHT22;48140;45.486;9.226;2023-03-24T13:57:16;24.50;47.20
62154;DHT22;48140;45.486;9.226;2023-03-24T14:02:55;24.90;45.10
62154;DHT22;48140;45.486;9.226;2023-03-24T14:05:42;24.70;45.00
62154;DHT22;48140;45.486;9.226;2023-03-24T14:19:38;23.10;48.90
62154;DHT22;48140;45.486;9.226;2023-03-24T14:24:39;23.10;48.80
62154;DHT22;48140;45.486;9.226;2023-03-24T14:27:37;22.90;49.60
62154;DHT22;48140;45.486;9.226;2023-03-24T14:30:25;22.50;51.20
62154;DHT22;48140;45.486;9.226;2023-03-24T14:32:56;22.00;53.20
62154;DHT22;48140;45.486;9.226;2023-03-24T14:35:59;21.70;55.00
62154;DHT22;48140;45.486;9.226;2023-03-24T14:38:26;21.30;58.00
62154;DHT22;48140;45.486;9.226;2023-03-24T14:40:56;20.80;60.70
62154;DHT22;48140;45.486;9.226;2023-03-24T14:43:28;20.50;63.80
62154;DHT22;48140;45.486;9.226;2023-03-24T14:52:01;20.50;62.50
62154;DHT22;48140;45.486;9.226;2023-03-24T14:54:55;20.30;62.70
62154;DHT22;48140;45.486;9.226;2023-03-24T14:57:24;20.20;62.60
62154;DHT22;48140;45.486;9.226;2023-03-24T15:00:39;20.00;63.90
62154;DHT22;48140;45.486;9.226;2023-03-24T15:02:42;19.80;65.50
62154;DHT22;48140;45.486;9.226;2023-03-24T15:05:16;19.50;67.80
62154;DHT22;48140;45.486;9.226;2023-03-24T15:07:43;19.40;68.60
62154;DHT22;48140;45.486;9.226;2023-03-24T15:10:16;18.90;70.40
62154;DHT22;48140;45.486;9.226;2023-03-24T15:12:48;18.80;71.80
62154;DHT22;48140;45.486;9.226;2023-03-24T15:15:16;18.60;72.60
62154;DHT22;48140;45.486;9.226;2023-03-24T15:17:43;18.60;73.00
62154;DHT22;48140;45.486;9.226;2023-03-24T15:20:30;18.30;74.10
62154;DHT22;48140;45.486;9.226;2023-03-24T15:23:07;18.30;74.70
62154;DHT22;48140;45.486;9.226;2023-03-24T15:25:34;18.50;74.00
62154;DHT22;48140;45.486;9.226;2023-03-24T15:28:00;18.50;74.10
62154;DHT22;48140;45.486;9.226;2023-03-24T15:30:27;18.40;74.20
62154;DHT22;48140;45.486;9.226;2023-03-24T15:32:53;18.40;74.40
62154;DHT22;48140;45.486;9.226;2023-03-24T15:35:21;18.40;74.70
62154;DHT22;48140;45.486;9.226;2023-03-24T15:37:53;18.40;75.30
62154;DHT22;48140;45.486;9.226;2023-03-24T15:42:56;18.30;75.20
62154;DHT22;48140;45.486;9.226;2023-03-24T15:45:27;18.20;74.90
62154;DHT22;48140;45.486;9.226;2023-03-24T15:47:55;18.10;75.10
62154;DHT22;48140;45.486;9.226;2023-03-24T15:50:38;18.00;74.60
62154;DHT22;48140;45.486;9.226;2023-03-24T15:55:41;17.90;74.20
62154;DHT22;48140;45.486;9.226;2023-03-24T15:58:24;17.90;74.80
62154;DHT22;48140;45.486;9.226;2023-03-24T16:00:54;17.80;73.90
62154;DHT22;48140;45.486;9.226;2023-03-24T16:03:22;17.80;75.30
62154;DHT22;48140;45.486;9.226;2023-03-24T16:05:52;17.80;73.90
62154;DHT22;48140;45.486;9.226;2023-03-24T16:08:33;17.70;74.30
62154;DHT22;48140;45.486;9.226;2023-03-24T16:11:11;17.70;74.50
62154;DHT22;48140;45.486;9.226;2023-03-24T16:13:39;17.70;74.30
62154;DHT22;48140;45.486;9.226;2023-03-24T16:18:37;17.50;75.90
62154;DHT22;48140;45.486;9.226;2023-03-24T16:21:20;17.50;76.30
62154;DHT22;48140;45.486;9.226;2023-03-24T16:23:47;17.40;77.10
62154;DHT22;48140;45.486;9.226;2023-03-24T16:28:44;17.50;77.00
62154;DHT22;48140;45.486;9.226;2023-03-24T16:31:29;17.40;78.10
62154;DHT22;48140;45.486;9.226;2023-03-24T16:33:56;17.30;77.10
62154;DHT22;48140;45.486;9.226;2023-03-24T16:36:22;17.30;77.60
62154;DHT22;48140;45.486;9.226;2023-03-24T16:38:55;17.30;77.40
62154;DHT22;48140;45.486;9.226;2023-03-24T16:41:22;17.30;77.50
62154;DHT22;48140;45.486;9.226;2023-03-24T16:43:48;17.40;77.50
62154;DHT22;48140;45.486;9.226;2023-03-24T16:46:24;17.20;77.30
62154;DHT22;48140;45.486;9.226;2023-03-24T16:48:54;17.20;77.60
62154;DHT22;48140;45.486;9.226;2023-03-24T16:51:20;17.30;78.00
62154;DHT22;48140;45.486;9.226;2023-03-24T16:53:46;17.20;78.10
62154;DHT22;48140;45.486;9.226;2023-03-24T16:56:15;17.30;78.90
62154;DHT22;48140;45.486;9.226;2023-03-24T16:58:41;17.40;77.80
62154;DHT22;48140;45.486;9.226;2023-03-24T17:01:33;17.40;77.80
62154;DHT22;48140;45.486;9.226;2023-03-24T17:04:10;17.50;77.10
62154;DHT22;48140;45.486;9.226;2023-03-24T17:06:40;17.50;76.80
62154;DHT22;48140;45.486;9.226;2023-03-24T17:09:07;17.40;76.90
62154;DHT22;48140;45.486;9.226;2023-03-24T17:11:38;17.20;78.00
62154;DHT22;48140;45.486;9.226;2023-03-24T17:14:04;17.10;78.20
62154;DHT22;48140;45.486;9.226;2023-03-24T17:16:34;17.10;78.20
62154;DHT22;48140;45.486;9.226;2023-03-24T17:19:07;17.00;78.70
62154;DHT22;48140;45.486;9.226;2023-03-24T17:21:59;16.80;79.00
62154;DHT22;48140;45.486;9.226;2023-03-24T17:24:26;16.70;79.70
62154;DHT22;48140;45.486;9.226;2023-03-24T17:26:52;16.70;80.10
62154;DHT22;48140;45.486;9.226;2023-03-24T17:29:18;16.60;80.30
62154;DHT22;48140;45.486;9.226;2023-03-24T17:31:44;16.60;80.30
62154;DHT22;48140;45.486;9.226;2023-03-24T17:34:13;16.60;80.40
62154;DHT22;48140;45.486;9.226;2023-03-24T17:36:39;16.50;80.90
62154;DHT22;48140;45.486;9.226;2023-03-24T17:39:05;16.40;81.10
62154;DHT22;48140;45.486;9.226;2023-03-24T17:41:34;16.30;81.30
62154;DHT22;48140;45.486;9.226;2023-03-24T17:44:00;16.30;81.70
62154;DHT22;48140;45.486;9.226;2023-03-24T17:46:26;16.30;81.70
62154;DHT22;48140;45.486;9.226;2023-03-24T17:48:52;16.20;81.70
62154;DHT22;48140;45.486;9.226;2023-03-24T17:51:17;16.30;81.90
62154;DHT22;48140;45.486;9.226;2023-03-24T17:53:43;16.20;82.10
62154;DHT22;48140;45.486;9.226;2023-03-24T17:56:09;16.20;81.90
62154;DHT22;48140;45.486;9.226;2023-03-24T17:58:35;16.30;82.20
62154;DHT22;48140;45.486;9.226;2023-03-24T18:01:02;16.20;82.40
62154;DHT22;48140;45.486;9.226;2023-03-24T18:03:32;16.20;82.30
62154;DHT22;48140;45.486;9.226;2023-03-24T18:06:11;16.20;82.50
62154;DHT22;48140;45.486;9.226;2023-03-24T18:08:37;16.20;82.50
62154;DHT22;48140;45.486;9.226;2023-03-24T18:11:05;16.10;82.60
62154;DHT22;48140;45.486;9.226;2023-03-24T18:13:32;16.10;82.90
62154;DHT22;48140;45.486;9.226;2023-03-24T18:15:59;16.10;83.30
62154;DHT22;48140;45.486;9.226;2023-03-24T18:18:25;15.90;84.30
62154;DHT22;48140;45.486;9.226;2023-03-24T18:20:52;16.20;84.20
62154;DHT22;48140;45.486;9.226;2023-03-24T18:23:17;15.90;84.20
62154;DHT22;48140;45.486;9.226;2023-03-24T18:25:43;15.80;84.30
62154;DHT22;48140;45.486;9.226;2023-03-24T18:28:08;15.80;84.60
62154;DHT22;48140;45.486;9.226;2023-03-24T18:30:35;15.70;84.90